หน้าหลัก
METAR-TAF:

METAR-TAF

ท่าอากาศยาน :

โมโรนี, คอโมโรส

ละติจูด: 11-32S, ลองจิจูด: 043-16E, ความสูง: 29 ม.

METAR: หายไป

เวลา: 09:33 (06:33 UTC)

การพยากรณ์

รายงานได้ทำขึ้นเมื่อ 1 ชั่วโมงและ 33 นาทีที่แล้ว ณ เวลา 05:00 UTC
การพยากรณ์มีผลตั้งแต่วันที่ 20 ณ เวลา 06 UTC จนถึงวันที่ 21 ณ เวลา 12 UTC
ลม 5 นอตจากตะวันตก
ทัศนวิสัย 10 กม. หรือมากกว่า
มีเมฆน้อยที่ความสูง 2000 ฟุต
กำลังกลายเป็น
ตั้งแต่วันที่ 20 ณ เวลา 06 UTC จนถึงวันที่ 20 ณ เวลา 08 UTC
ลม 12 นอตจากใต้/ตะวันออกเฉียงใต้
ความน่าจะเป็น 30% :
ชั่วคราว
ตั้งแต่วันที่ 20 ณ เวลา 12 UTC จนถึงวันที่ 20 ณ เวลา 17 UTC
ทัศนวิสัย: 4500 ม.
มีเมฆกระจายเป็นบางส่วนที่ความสูง 2000 ฟุต, คิวมูโลนิมบัส.
มีเมฆกระจายเป็นบางส่วนที่ความสูง 3000 ฟุต
พายุฝนฟ้าคะนอง, ฝนโปรยปราย
กำลังกลายเป็น
ตั้งแต่วันที่ 20 ณ เวลา 15 UTC จนถึงวันที่ 20 ณ เวลา 17 UTC
ลม 6 นอตจากตะวันออก
กำลังกลายเป็น
ตั้งแต่วันที่ 21 ณ เวลา 05 UTC จนถึงวันที่ 21 ณ เวลา 07 UTC
ลม 10 นอตจากใต้

TAF: FMCH 200500Z 2006/2112 26005KT 9999 FEW020 BECMG 2006/2008 15012KT PROB30 TEMPO 2012/2017 4500 TS SHRA SCT020CB SCT030 BECMG 2015/2017 09006KT BECMG 2105/2107 17010KT

สังเกตการณ์สภาพอากาศและพยากรณ์อากาศของสนามบินมากกว่า 4000 แห่ง (รายงาน METAR และ TAF).

สถานีที่ดูได้จะแสดงไว้ด้วยจุดสีเหลืองและสีแดงบนแผนที่.

เลื่อนเมาส์ไปเหนือจุดเพื่อดูชื่อสถานี.

แล้วคลิกเพื่อดูสังเกตการณ์และการพยากรณ์สภาพอากาศ.

ในการเปลี่ยนแผนที่: คลิกที่ปุ่มสีเขียวที่มีกากบาทสีดำเพื่อซูมเข้า; ที่ปุ่มสีเขียวที่มีขีดเพื่อซูมออก; หรือที่ลูกศรสีเขียวเพื่อไปยังแผนที่ที่อยู่ติดกัน.


METAR-TAF: